Time;durP1;ratioP1;P1;durP2;ratioP2;P2;SDS_P1;SDS_P2;PMS_P1;PMS_P2;Temp;Humidity;BMP_temperature;BMP_pressure;BME280_temperature;BME280_humidity;BME280_pressure;Samples;Min_cycle;Max_cycle;Signal;HPM_P1;HPM_P2
2023/11/06 00:01:49;;;;;;;10.60;1.50;;;9.40;85.00;;;;;;5070277;28;20429;-74
2023/11/06 00:04:15;;;;;;;4.73;1.33;;;9.50;85.00;;;;;;5075269;28;20820;-74
2023/11/06 00:06:40;;;;;;;2.00;1.07;;;9.50;85.20;;;;;;5074061;28;20917;-74
2023/11/06 00:09:06;;;;;;;5.00;1.70;;;9.50;85.00;;;;;;5074462;28;20237;-75
2023/11/06 00:11:32;;;;;;;2.77;1.23;;;9.50;85.30;;;;;;5074652;28;20675;-78
2023/11/06 00:13:59;;;;;;;6.23;1.20;;;9.50;85.50;;;;;;5073033;28;20211;-75
2023/11/06 00:16:25;;;;;;;4.40;1.20;;;9.40;85.60;;;;;;5074301;28;20525;-75
2023/11/06 00:18:50;;;;;;;3.13;1.70;;;9.40;85.70;;;;;;5074089;28;20526;-75
2023/11/06 00:21:17;;;;;;;2.20;1.20;;;9.40;85.60;;;;;;5073953;28;20655;-75
2023/11/06 00:23:44;;;;;;;5.73;1.60;;;9.50;85.60;;;;;;5072970;28;20200;-74
2023/11/06 00:26:16;;;;;;;3.40;1.50;;;9.40;85.50;;;;;;5072967;28;20453;-74
2023/11/06 00:28:42;;;;;;;5.60;1.53;;;9.40;85.60;;;;;;5055930;28;20945;-75
2023/11/06 00:31:08;;;;;;;3.37;1.33;;;9.40;85.50;;;;;;5073317;28;20426;-74
2023/11/06 00:33:33;;;;;;;2.80;1.90;;;9.40;85.50;;;;;;5073460;28;20544;-75
2023/11/06 00:35:59;;;;;;;3.23;2.10;;;9.40;85.60;;;;;;5073506;28;20926;-74
2023/11/06 00:38:25;;;;;;;4.27;1.40;;;9.40;85.30;;;;;;5073918;28;20553;-75
2023/11/06 00:40:50;;;;;;;3.80;1.40;;;9.40;85.20;;;;;;5073438;28;20563;-76
2023/11/06 00:43:16;;;;;;;3.90;1.50;;;9.40;85.50;;;;;;5074517;28;20780;-74
2023/11/06 00:45:42;;;;;;;2.50;1.50;;;9.40;85.50;;;;;;5073883;28;20200;-74
2023/11/06 00:48:08;;;;;;;4.90;1.67;;;9.40;85.30;;;;;;5050222;28;20418;-74
2023/11/06 00:50:33;;;;;;;2.20;1.30;;;9.40;85.30;;;;;;5037813;28;20449;-74
2023/11/06 00:52:59;;;;;;;3.30;1.27;;;9.40;85.20;;;;;;5054482;28;20192;-74
2023/11/06 00:55:28;;;;;;;3.97;2.10;;;9.40;85.20;;;;;;5052329;28;20218;-74
2023/11/06 00:57:53;;;;;;;3.10;1.30;;;9.40;85.20;;;;;;5052862;28;20593;-74
2023/11/06 01:00:22;;;;;;;3.00;1.57;;;9.40;85.00;;;;;;5053346;28;20518;-74
2023/11/06 01:02:51;;;;;;;8.47;2.37;;;9.40;85.00;;;;;;5052915;28;20196;-75
2023/11/06 01:05:16;;;;;;;2.43;1.80;;;9.40;85.00;;;;;;5053661;28;20510;-75
2023/11/06 01:07:42;;;;;;;2.23;1.20;;;9.40;85.00;;;;;;5054160;28;20505;-73
2023/11/06 01:10:08;;;;;;;2.90;1.67;;;9.40;85.20;;;;;;5053840;28;20597;-76
2023/11/06 01:12:34;;;;;;;3.00;1.60;;;9.30;85.20;;;;;;5057943;28;20189;-74
2023/11/06 01:15:01;;;;;;;2.50;1.27;;;9.30;85.30;;;;;;5060657;28;20544;-75
2023/11/06 01:17:27;;;;;;;2.30;1.43;;;9.20;85.50;;;;;;5077810;28;20476;-75
2023/11/06 01:19:53;;;;;;;4.47;1.80;;;9.10;85.60;;;;;;5076094;28;20440;-74
2023/11/06 01:22:19;;;;;;;3.37;1.60;;;9.20;85.60;;;;;;5076609;28;20502;-74
2023/11/06 01:24:45;;;;;;;1.80;1.00;;;9.20;85.30;;;;;;5075370;28;20476;-74
2023/11/06 01:27:10;;;;;;;3.97;1.33;;;9.30;84.90;;;;;;5075989;28;20942;-74
2023/11/06 01:29:36;;;;;;;1.27;1.07;;;9.40;84.70;;;;;;5073015;28;20199;-74
2023/11/06 01:32:03;;;;;;;4.33;1.50;;;9.40;84.60;;;;;;5073312;28;20538;-74
2023/11/06 01:34:29;;;;;;;5.23;1.90;;;9.40;84.40;;;;;;5072547;28;20322;-74
2023/11/06 01:36:55;;;;;;;5.50;1.40;;;9.40;84.60;;;;;;5072625;28;20914;-74
2023/11/06 01:39:22;;;;;;;4.17;1.60;;;9.30;84.70;;;;;;5073016;28;20792;-74
2023/11/06 01:41:48;;;;;;;5.37;1.50;;;9.40;84.60;;;;;;5072614;28;20234;-74
2023/11/06 01:44:14;;;;;;;2.47;1.47;;;9.40;84.40;;;;;;5072014;28;20437;-75
2023/11/06 01:46:39;;;;;;;5.30;1.77;;;9.40;84.60;;;;;;5047049;28;20970;-75
2023/11/06 01:49:06;;;;;;;7.77;1.60;;;9.30;84.60;;;;;;5046773;28;20615;-74
2023/11/06 01:51:33;;;;;;;8.40;1.30;;;9.40;84.60;;;;;;5052988;28;20239;-73
2023/11/06 01:54:00;;;;;;;2.00;1.07;;;9.40;84.60;;;;;;5053207;28;20457;-74
2023/11/06 01:56:28;;;;;;;2.13;1.07;;;9.40;84.30;;;;;;5073025;28;20484;-74
2023/11/06 01:58:53;;;;;;;3.17;1.27;;;9.30;84.30;;;;;;5073340;28;20984;-74
2023/11/06 02:01:19;;;;;;;4.83;1.30;;;9.40;84.30;;;;;;5073597;28;20430;-75
2023/11/06 02:03:45;;;;;;;1.90;1.23;;;9.40;84.10;;;;;;5078753;28;20211;-76
2023/11/06 02:06:11;;;;;;;2.30;1.00;;;9.40;83.80;;;;;;5074422;28;20269;-74
2023/11/06 02:08:37;;;;;;;3.60;1.00;;;9.40;83.70;;;;;;5072034;28;20467;-74
2023/11/06 02:11:03;;;;;;;3.73;1.10;;;9.40;83.70;;;;;;5072632;28;20434;-75
2023/11/06 02:13:30;;;;;;;6.00;1.33;;;9.40;83.70;;;;;;5072194;28;20226;-75
2023/11/06 02:15:55;;;;;;;3.83;1.40;;;9.50;83.70;;;;;;5072906;28;20429;-75
2023/11/06 02:18:24;;;;;;;2.13;1.20;;;9.50;83.60;;;;;;5072385;28;20935;-74
2023/11/06 02:20:54;;;;;;;4.47;1.10;;;9.50;83.60;;;;;;5071831;28;20438;-74
2023/11/06 02:23:24;;;;;;;2.00;1.10;;;9.50;83.60;;;;;;5075693;28;20509;-73
2023/11/06 02:25:49;;;;;;;1.77;1.10;;;9.50;83.40;;;;;;5090682;28;20464;-74
2023/11/06 02:28:16;;;;;;;3.07;1.10;;;9.50;83.70;;;;;;5072032;28;20434;-75
2023/11/06 02:30:42;;;;;;;5.93;1.20;;;9.50;83.80;;;;;;5072209;28;20230;-74
2023/11/06 02:33:07;;;;;;;1.60;1.10;;;9.50;83.70;;;;;;5072128;28;20430;-74
2023/11/06 02:35:33;;;;;;;1.87;1.20;;;9.50;84.10;;;;;;5073993;28;20214;-74
2023/11/06 02:37:58;;;;;;;3.93;1.27;;;9.40;83.80;;;;;;5087211;28;20220;-74
2023/11/06 02:40:24;;;;;;;2.57;1.03;;;9.40;83.70;;;;;;5072744;28;20195;-73
2023/11/06 02:42:49;;;;;;;1.97;1.10;;;9.40;83.80;;;;;;5071881;28;20187;-74
2023/11/06 02:45:15;;;;;;;6.17;1.30;;;9.30;84.10;;;;;;5072757;28;20204;-74
2023/11/06 02:47:41;;;;;;;2.60;1.10;;;9.40;83.80;;;;;;5058902;28;20203;-74
2023/11/06 02:50:08;;;;;;;6.03;1.87;;;9.40;83.70;;;;;;5053500;28;20192;-75
2023/11/06 02:52:36;;;;;;;4.53;1.37;;;9.40;83.70;;;;;;5053790;28;20263;-73
2023/11/06 02:55:02;;;;;;;3.23;1.27;;;9.30;83.70;;;;;;5050872;28;20886;-76
2023/11/06 02:57:29;;;;;;;4.33;1.03;;;9.30;83.70;;;;;;5051268;28;20258;-74
2023/11/06 02:59:54;;;;;;;1.83;1.30;;;9.30;83.70;;;;;;5051811;28;20199;-74
2023/11/06 03:02:20;;;;;;;2.70;0.90;;;9.40;83.60;;;;;;5051069;28;20427;-74
2023/11/06 03:04:45;;;;;;;3.70;1.87;;;9.40;83.40;;;;;;5052067;28;20211;-74
2023/11/06 03:07:11;;;;;;;2.33;1.10;;;9.40;83.40;;;;;;5053265;28;20180;-74
2023/11/06 03:09:36;;;;;;;7.27;1.40;;;9.40;83.30;;;;;;5055299;28;20218;-73
2023/11/06 03:12:03;;;;;;;3.20;1.10;;;9.40;83.40;;;;;;5067566;28;20184;-76
2023/11/06 03:14:28;;;;;;;4.73;1.03;;;9.40;83.30;;;;;;5045791;28;20211;-76
2023/11/06 03:16:54;;;;;;;2.80;1.10;;;9.40;83.30;;;;;;5065515;28;20935;-75
2023/11/06 03:19:19;;;;;;;1.77;1.10;;;9.40;83.30;;;;;;5060441;28;20189;-74
2023/11/06 03:21:46;;;;;;;10.10;1.40;;;9.40;83.30;;;;;;5069839;28;20200;-75
2023/11/06 03:24:13;;;;;;;2.00;0.93;;;9.40;83.30;;;;;;5073325;28;20200;-75
2023/11/06 03:26:46;;;;;;;3.33;1.30;;;9.30;83.30;;;;;;5074882;28;20522;-75
2023/11/06 03:29:11;;;;;;;2.83;0.97;;;9.40;83.40;;;;;;5063544;28;20518;-75
2023/11/06 03:31:37;;;;;;;3.87;1.30;;;9.40;83.30;;;;;;5057662;28;20455;-74
2023/11/06 03:34:03;;;;;;;3.03;1.30;;;9.40;83.40;;;;;;5055693;28;20276;-74
2023/11/06 03:36:29;;;;;;;4.77;1.20;;;9.40;83.40;;;;;;5057131;28;20184;-76
2023/11/06 03:38:54;;;;;;;6.90;1.60;;;9.40;83.60;;;;;;5062848;28;20474;-75
2023/11/06 03:41:20;;;;;;;4.23;1.10;;;9.40;83.60;;;;;;5066798;28;20227;-75
2023/11/06 03:43:51;;;;;;;2.80;1.30;;;9.30;83.60;;;;;;5063480;28;20274;-73
2023/11/06 03:46:19;;;;;;;4.53;1.57;;;9.30;83.70;;;;;;5070308;28;20179;-74
2023/11/06 03:48:46;;;;;;;5.70;1.00;;;9.30;83.70;;;;;;5073379;28;20930;-75
2023/11/06 03:51:11;;;;;;;2.93;1.53;;;9.30;83.70;;;;;;5079101;28;20521;-74
2023/11/06 03:53:37;;;;;;;1.67;0.90;;;9.40;83.70;;;;;;5055416;28;20458;-74
2023/11/06 03:56:03;;;;;;;4.30;1.20;;;9.50;83.60;;;;;;5068582;28;20196;-74
2023/11/06 03:58:28;;;;;;;2.07;1.07;;;9.50;83.40;;;;;;5060241;28;20223;-75
2023/11/06 04:00:54;;;;;;;6.07;1.30;;;9.60;83.40;;;;;;5071262;28;20657;-75
2023/11/06 04:03:19;;;;;;;3.60;1.20;;;9.60;83.30;;;;;;5073219;28;20208;-75
2023/11/06 04:05:46;;;;;;;2.67;1.20;;;9.60;83.40;;;;;;5044563;28;20208;-74
2023/11/06 04:08:12;;;;;;;2.30;1.40;;;9.60;83.30;;;;;;5069481;28;20190;-75
2023/11/06 04:10:40;;;;;;;3.70;1.47;;;9.60;83.30;;;;;;5044507;28;20454;-74
2023/11/06 04:13:06;;;;;;;1.97;1.17;;;9.60;83.40;;;;;;5065382;28;20191;-74
2023/11/06 04:15:31;;;;;;;4.10;1.40;;;9.60;83.80;;;;;;5058396;28;20411;-74
2023/11/06 04:17:57;;;;;;;6.50;1.20;;;9.50;84.00;;;;;;5060765;28;20216;-74
2023/11/06 04:20:22;;;;;;;2.70;1.30;;;9.60;84.30;;;;;;5060201;28;20181;-74
2023/11/06 04:22:48;;;;;;;3.33;1.50;;;9.60;84.30;;;;;;5078128;28;20218;-73
2023/11/06 04:25:14;;;;;;;2.63;1.03;;;9.60;83.80;;;;;;5089436;28;20494;-75
2023/11/06 04:27:39;;;;;;;4.93;1.20;;;9.60;83.70;;;;;;5089284;28;20228;-76
2023/11/06 04:30:07;;;;;;;2.17;1.10;;;9.60;83.70;;;;;;5090899;28;20195;-75
2023/11/06 04:32:33;;;;;;;3.93;1.80;;;9.60;83.70;;;;;;5080933;28;20188;-75
2023/11/06 04:34:59;;;;;;;12.57;1.20;;;9.70;83.60;;;;;;5073845;28;20446;-75
2023/11/06 04:37:25;;;;;;;3.13;1.50;;;9.70;83.40;;;;;;5073220;28;20466;-75
2023/11/06 04:39:50;;;;;;;1.73;1.13;;;9.80;83.30;;;;;;5067863;28;20450;-74
2023/11/06 04:42:16;;;;;;;2.53;1.10;;;9.80;83.10;;;;;;5073094;28;20180;-75
2023/11/06 04:44:42;;;;;;;3.13;1.03;;;9.70;83.10;;;;;;5070808;28;20215;-76
2023/11/06 04:47:08;;;;;;;1.80;1.10;;;9.70;83.10;;;;;;5069863;28;20188;-74
2023/11/06 04:49:34;;;;;;;5.83;1.20;;;9.80;83.10;;;;;;5056667;28;20212;-75
2023/11/06 04:52:00;;;;;;;3.80;1.60;;;9.70;83.00;;;;;;5061851;28;20434;-75
2023/11/06 04:54:25;;;;;;;2.00;0.80;;;9.70;83.00;;;;;;5062720;28;20840;-75
2023/11/06 04:56:51;;;;;;;5.90;1.30;;;9.60;83.30;;;;;;5060819;28;20197;-75
2023/11/06 04:59:17;;;;;;;2.10;1.00;;;9.60;83.10;;;;;;5044108;28;20192;-75
2023/11/06 05:01:43;;;;;;;3.23;1.40;;;9.60;83.10;;;;;;5062172;28;20249;-74
2023/11/06 05:04:09;;;;;;;3.63;1.40;;;9.50;83.10;;;;;;5061494;28;20212;-75
2023/11/06 05:06:34;;;;;;;3.67;1.47;;;9.50;83.40;;;;;;5060882;28;20437;-75
2023/11/06 05:09:04;;;;;;;2.13;1.00;;;9.40;83.40;;;;;;5057701;28;20715;-75
2023/11/06 05:11:30;;;;;;;3.90;1.20;;;9.40;83.40;;;;;;5079391;28;20640;-75
2023/11/06 05:13:56;;;;;;;3.60;1.00;;;9.40;83.30;;;;;;5079363;28;20457;-75
2023/11/06 05:16:21;;;;;;;6.60;1.27;;;9.30;83.60;;;;;;5079485;28;20562;-76
2023/11/06 05:18:47;;;;;;;3.30;1.20;;;9.30;83.70;;;;;;5079003;28;20216;-76
2023/11/06 05:21:25;;;;;;;6.23;1.23;;;9.30;83.60;;;;;;5070636;28;20187;-76
2023/11/06 05:23:51;;;;;;;5.17;1.43;;;9.30;83.60;;;;;;5041716;28;20704;-76
2023/11/06 05:26:17;;;;;;;4.20;1.50;;;9.20;83.70;;;;;;5061296;28;20476;-75
2023/11/06 05:28:43;;;;;;;8.63;1.20;;;9.30;83.70;;;;;;5060934;28;20419;-75
2023/11/06 05:31:09;;;;;;;4.57;1.20;;;9.30;83.40;;;;;;5059403;28;20649;-75
2023/11/06 05:33:39;;;;;;;3.80;1.20;;;9.30;83.40;;;;;;5059287;28;20438;-77
2023/11/06 05:36:06;;;;;;;2.90;1.80;;;9.30;83.30;;;;;;5057976;28;20423;-76
2023/11/06 05:38:32;;;;;;;2.47;1.20;;;9.40;83.10;;;;;;5058180;28;20827;-75
2023/11/06 05:40:58;;;;;;;3.40;1.00;;;9.40;83.10;;;;;;5056658;28;20427;-75
2023/11/06 05:43:23;;;;;;;4.77;1.20;;;9.40;83.10;;;;;;5052665;28;20439;-75
2023/11/06 05:45:49;;;;;;;2.10;0.97;;;9.40;83.30;;;;;;5059116;28;20185;-76
2023/11/06 05:48:15;;;;;;;2.13;1.20;;;9.40;83.10;;;;;;5059545;28;20639;-74
2023/11/06 05:50:40;;;;;;;2.30;1.00;;;9.30;83.10;;;;;;5056963;28;20180;-74
2023/11/06 05:53:06;;;;;;;5.37;1.57;;;9.30;83.10;;;;;;5056445;28;20195;-76
2023/11/06 05:55:32;;;;;;;1.97;1.00;;;9.30;83.30;;;;;;5056312;28;20207;-74
2023/11/06 05:57:57;;;;;;;1.10;0.70;;;9.30;83.30;;;;;;5038779;28;20581;-77
2023/11/06 06:00:23;;;;;;;1.23;0.70;;;9.30;83.10;;;;;;5058472;28;20196;-75
2023/11/06 06:02:48;;;;;;;3.03;0.73;;;9.30;83.10;;;;;;5055300;28;20193;-74
2023/11/06 06:05:14;;;;;;;2.27;1.30;;;9.30;83.10;;;;;;5054426;28;20216;-76
2023/11/06 06:07:40;;;;;;;2.23;1.00;;;9.30;83.10;;;;;;5054649;28;20188;-76
2023/11/06 06:10:07;;;;;;;2.10;1.40;;;9.30;83.10;;;;;;5055454;28;20204;-75
2023/11/06 06:12:33;;;;;;;5.20;1.00;;;9.40;82.80;;;;;;5056066;28;20514;-76
2023/11/06 06:15:01;;;;;;;3.43;1.20;;;9.40;82.70;;;;;;5057174;28;20474;-76
2023/11/06 06:17:27;;;;;;;2.57;1.10;;;9.30;82.70;;;;;;5060932;28;20247;-75
2023/11/06 06:19:53;;;;;;;3.40;1.10;;;9.30;82.80;;;;;;5056053;28;20450;-75
2023/11/06 06:22:18;;;;;;;2.83;1.00;;;9.30;82.80;;;;;;5066343;28;20435;-75
2023/11/06 06:24:45;;;;;;;1.30;1.10;;;9.30;82.50;;;;;;5070544;28;20220;-75
2023/11/06 06:27:11;;;;;;;2.10;1.10;;;9.30;82.40;;;;;;5053503;28;20207;-75
2023/11/06 06:29:36;;;;;;;1.43;0.73;;;9.30;82.10;;;;;;5056609;28;20431;-75
2023/11/06 06:32:03;;;;;;;4.63;1.20;;;9.30;82.10;;;;;;5058730;28;20185;-76
2023/11/06 06:34:28;;;;;;;2.73;1.30;;;9.30;81.90;;;;;;5060624;28;20270;-75
2023/11/06 06:36:55;;;;;;;4.20;0.97;;;9.30;81.70;;;;;;5063813;28;20849;-77
2023/11/06 06:39:21;;;;;;;2.90;0.97;;;9.30;81.50;;;;;;5071760;28;20219;-75
2023/11/06 06:41:46;;;;;;;1.43;1.00;;;9.40;81.20;;;;;;5067090;28;20419;-75
2023/11/06 06:44:12;;;;;;;3.53;1.47;;;9.40;81.20;;;;;;5059766;28;20212;-75
2023/11/06 06:46:38;;;;;;;2.50;1.00;;;9.40;81.20;;;;;;5058316;28;20192;-75
2023/11/06 06:49:04;;;;;;;1.73;1.00;;;9.40;81.20;;;;;;5060356;28;20187;-76
2023/11/06 06:51:30;;;;;;;3.87;0.97;;;9.50;80.80;;;;;;5049264;28;20188;-76
2023/11/06 06:53:57;;;;;;;11.57;1.50;;;9.50;80.80;;;;;;5073751;28;20464;-75
2023/11/06 06:56:23;;;;;;;2.97;1.00;;;9.50;80.60;;;;;;5073125;28;20191;-76
2023/11/06 06:58:48;;;;;;;4.80;0.80;;;9.50;80.80;;;;;;5057815;28;20470;-76
2023/11/06 07:01:16;;;;;;;1.43;0.80;;;9.50;80.90;;;;;;5074631;28;20190;-76
2023/11/06 07:03:43;;;;;;;3.23;1.23;;;9.50;81.10;;;;;;5074828;28;20215;-76
2023/11/06 07:06:10;;;;;;;1.90;1.13;;;9.50;81.20;;;;;;5072806;28;20423;-76
2023/11/06 07:08:36;;;;;;;2.00;1.00;;;9.40;81.40;;;;;;5074831;28;20204;-78
2023/11/06 07:11:03;;;;;;;5.17;1.13;;;9.50;81.50;;;;;;5074887;28;20423;-77
2023/11/06 07:13:29;;;;;;;2.33;1.10;;;9.50;81.40;;;;;;5074447;28;20465;-75
2023/11/06 07:15:54;;;;;;;1.60;0.80;;;9.50;81.40;;;;;;5075017;28;20458;-76
2023/11/06 07:18:20;;;;;;;2.70;1.30;;;9.50;81.50;;;;;;5074509;28;20304;-75
2023/11/06 07:20:46;;;;;;;2.23;1.10;;;9.50;81.40;;;;;;5066001;28;20197;-76
2023/11/06 07:23:11;;;;;;;2.47;1.20;;;9.50;81.40;;;;;;5050152;28;20284;-75
2023/11/06 07:25:38;;;;;;;1.77;1.00;;;9.50;81.50;;;;;;5050901;28;20454;-76
2023/11/06 07:28:04;;;;;;;2.13;1.17;;;9.50;81.50;;;;;;5033106;28;20196;-75
2023/11/06 07:30:29;;;;;;;5.30;1.10;;;9.60;81.70;;;;;;5051751;28;20803;-75
2023/11/06 07:32:55;;;;;;;3.30;1.40;;;9.50;81.70;;;;;;5056355;28;20434;-76
2023/11/06 07:35:21;;;;;;;3.50;1.30;;;9.60;81.70;;;;;;5070748;28;20184;-76
2023/11/06 07:37:46;;;;;;;1.30;0.73;;;9.60;81.70;;;;;;5071465;28;20212;-75
2023/11/06 07:40:13;;;;;;;2.50;1.30;;;9.70;81.40;;;;;;5058642;28;20196;-74
2023/11/06 07:42:40;;;;;;;2.47;1.27;;;9.70;81.20;;;;;;5039103;28;20198;-75
2023/11/06 07:45:07;;;;;;;3.47;1.07;;;9.70;81.10;;;;;;5071348;28;20454;-75
2023/11/06 07:47:39;;;;;;;2.20;1.20;;;9.70;81.10;;;;;;5062554;28;20450;-76
2023/11/06 07:50:05;;;;;;;2.47;1.30;;;9.80;81.10;;;;;;5055178;28;20422;-77
2023/11/06 07:52:30;;;;;;;15.03;1.90;;;9.80;81.10;;;;;;5051373;28;20786;-76
2023/11/06 07:54:58;;;;;;;3.63;1.70;;;9.80;81.10;;;;;;5051096;28;20438;-75
2023/11/06 07:57:24;;;;;;;4.90;1.67;;;9.90;80.80;;;;;;5051455;28;20221;-77
2023/11/06 07:59:51;;;;;;;1.67;1.00;;;9.90;80.90;;;;;;5051540;28;20504;-76
2023/11/06 08:02:17;;;;;;;4.57;1.37;;;9.90;81.10;;;;;;5052723;28;20196;-76
2023/11/06 08:04:43;;;;;;;3.47;1.70;;;9.90;81.10;;;;;;5055412;28;20451;-76
2023/11/06 08:07:11;;;;;;;4.30;1.50;;;9.90;81.20;;;;;;5062346;28;20505;-76
2023/11/06 08:09:37;;;;;;;9.07;1.33;;;10.00;81.20;;;;;;5079804;28;20440;-76
2023/11/06 08:12:04;;;;;;;1.73;1.10;;;10.00;81.10;;;;;;5079461;28;20430;-76
2023/11/06 08:14:33;;;;;;;2.77;1.10;;;10.00;80.90;;;;;;5056732;28;20454;-74
2023/11/06 08:16:59;;;;;;;5.40;1.63;;;10.10;80.80;;;;;;5074906;28;20464;-75
2023/11/06 08:19:24;;;;;;;7.50;1.70;;;10.20;80.30;;;;;;5075683;28;20516;-75
2023/11/06 08:21:50;;;;;;;4.13;1.43;;;10.20;80.20;;;;;;5057993;28;20233;-76
2023/11/06 08:24:15;;;;;;;6.93;1.70;;;10.30;80.00;;;;;;5074689;28;20203;-76
2023/11/06 08:26:43;;;;;;;2.93;1.33;;;10.30;80.20;;;;;;5076501;28;20213;-76
2023/11/06 08:29:09;;;;;;;6.07;2.17;;;10.30;80.20;;;;;;5078911;28;20208;-76
2023/11/06 08:31:35;;;;;;;5.73;1.20;;;10.40;80.00;;;;;;5075622;28;20418;-77
2023/11/06 08:34:01;;;;;;;4.80;1.40;;;10.50;79.70;;;;;;5074131;28;20446;-77
2023/11/06 08:36:26;;;;;;;1.83;1.03;;;10.50;79.50;;;;;;5074528;28;20818;-77
2023/11/06 08:38:52;;;;;;;3.70;1.10;;;10.60;79.30;;;;;;5075482;28;20226;-76
2023/11/06 08:41:18;;;;;;;6.83;1.37;;;10.60;79.00;;;;;;5057698;28;20957;-76
2023/11/06 08:43:44;;;;;;;2.50;1.20;;;10.60;78.60;;;;;;5078050;28;20345;-76
2023/11/06 08:46:09;;;;;;;4.53;1.93;;;10.70;78.40;;;;;;5079475;28;20207;-76
2023/11/06 08:48:35;;;;;;;4.60;1.73;;;10.80;78.40;;;;;;5063506;28;20238;-75
2023/11/06 08:51:00;;;;;;;6.80;1.40;;;10.80;78.00;;;;;;5063451;28;20558;-76
2023/11/06 08:53:26;;;;;;;3.03;1.40;;;10.90;77.40;;;;;;5058024;28;20280;-76
2023/11/06 08:55:51;;;;;;;5.53;1.63;;;11.00;77.40;;;;;;5074655;28;20188;-76
2023/11/06 08:58:17;;;;;;;1.87;1.10;;;11.00;77.30;;;;;;5073112;28;20232;-75
2023/11/06 09:00:49;;;;;;;2.03;1.10;;;11.10;77.00;;;;;;5073422;28;20195;-76
2023/11/06 09:03:15;;;;;;;2.60;1.10;;;11.10;77.00;;;;;;5072771;28;20227;-76
2023/11/06 09:05:41;;;;;;;2.20;0.90;;;11.10;77.10;;;;;;5073210;28;20430;-76
2023/11/06 09:08:07;;;;;;;4.47;1.77;;;11.20;77.00;;;;;;5073138;28;20418;-76
2023/11/06 09:10:33;;;;;;;5.67;1.33;;;11.20;77.10;;;;;;5073402;28;20541;-75
2023/11/06 09:13:00;;;;;;;7.30;1.90;;;11.20;77.30;;;;;;5057208;28;20923;-74
2023/11/06 09:15:25;;;;;;;3.77;1.33;;;11.20;77.40;;;;;;5053639;28;20855;-75
2023/11/06 09:17:51;;;;;;;2.93;0.97;;;11.30;77.30;;;;;;5053686;28;20458;-75
2023/11/06 09:20:16;;;;;;;1.83;1.10;;;11.40;77.40;;;;;;5053843;28;20181;-74
2023/11/06 09:22:42;;;;;;;7.20;1.57;;;11.40;77.10;;;;;;5053379;28;20272;-76
2023/11/06 09:25:08;;;;;;;3.57;1.50;;;11.50;77.00;;;;;;5054039;28;20311;-75
2023/11/06 09:27:36;;;;;;;4.23;1.50;;;11.50;76.50;;;;;;5055516;28;20208;-75
2023/11/06 09:30:03;;;;;;;3.20;1.40;;;11.40;76.50;;;;;;5056240;28;20454;-75
2023/11/06 09:32:28;;;;;;;3.63;1.53;;;11.40;77.00;;;;;;5053222;28;20517;-75
2023/11/06 09:34:55;;;;;;;4.40;1.33;;;11.40;76.50;;;;;;5053874;28;20443;-75
2023/11/06 09:37:21;;;;;;;4.20;1.40;;;11.40;76.70;;;;;;5053139;28;20625;-75
2023/11/06 09:39:47;;;;;;;5.47;1.93;;;11.50;76.70;;;;;;5053527;28;21026;-75
2023/11/06 09:42:12;;;;;;;2.87;1.20;;;11.50;76.50;;;;;;5053612;28;20464;-75
2023/11/06 09:44:38;;;;;;;4.40;1.27;;;11.60;75.90;;;;;;5052666;28;20254;-76
2023/11/06 09:47:08;;;;;;;3.43;1.10;;;11.60;75.50;;;;;;5051056;28;20188;-76
2023/11/06 09:50:05;;;;;;;3.50;1.40;;;11.70;75.70;;;;;;5057054;28;20449;-75
2023/11/06 09:52:32;;;;;;;4.33;1.20;;;11.70;75.20;;;;;;5048842;28;20422;-77
2023/11/06 09:55:00;;;;;;;5.00;1.13;;;11.70;75.10;;;;;;5035146;28;20482;-77
2023/11/06 09:57:25;;;;;;;3.43;1.17;;;11.70;74.50;;;;;;5053280;28;20481;-77
2023/11/06 09:59:52;;;;;;;3.70;1.00;;;11.80;74.30;;;;;;5053015;28;20438;-75
2023/11/06 10:02:22;;;;;;;2.17;1.17;;;11.80;74.20;;;;;;5053222;28;20191;-74
2023/11/06 10:04:47;;;;;;;3.00;1.63;;;11.90;74.00;;;;;;5052337;28;20454;-75
2023/11/06 10:07:43;;;;;;;2.43;1.10;;;12.00;73.70;;;;;;5053174;28;20789;-75
2023/11/06 10:10:18;;;;;;;3.13;1.03;;;12.10;73.30;;;;;;5057929;28;20188;-76
2023/11/06 10:12:44;;;;;;;1.90;1.10;;;12.30;72.60;;;;;;5036947;28;20485;-75
2023/11/06 10:15:13;;;;;;;1.00;0.80;;;12.40;71.80;;;;;;5053382;28;20446;-75
2023/11/06 10:17:39;;;;;;;2.33;1.30;;;12.40;71.70;;;;;;5052768;28;20473;-75
2023/11/06 10:20:13;;;;;;;1.87;1.10;;;12.50;71.70;;;;;;5053404;28;20437;-76
2023/11/06 10:22:55;;;;;;;4.27;1.20;;;12.80;71.10;;;;;;5062634;28;20471;-75
2023/11/06 10:25:27;;;;;;;2.90;1.40;;;13.10;69.50;;;;;;5071277;28;20849;-76
2023/11/06 10:27:57;;;;;;;3.73;1.20;;;13.20;69.80;;;;;;5072681;28;20434;-75
2023/11/06 10:30:24;;;;;;;1.60;0.90;;;13.30;69.20;;;;;;5074292;28;20497;-76
2023/11/06 10:32:49;;;;;;;2.30;1.17;;;13.10;68.60;;;;;;5075457;28;20432;-75
2023/11/06 10:35:17;;;;;;;3.13;1.10;;;13.00;69.40;;;;;;5068621;28;20489;-74
2023/11/06 10:37:45;;;;;;;1.87;1.00;;;13.00;69.80;;;;;;5054898;28;20220;-74
2023/11/06 10:40:13;;;;;;;1.93;1.00;;;12.90;69.50;;;;;;5036331;28;20576;-76
2023/11/06 10:42:42;;;;;;;2.63;1.10;;;12.80;69.80;;;;;;5054964;28;20438;-76
2023/11/06 10:45:14;;;;;;;5.47;1.07;;;12.70;69.50;;;;;;5052734;28;20532;-75
2023/11/06 10:47:52;;;;;;;2.20;1.10;;;13.00;70.20;;;;;;5051584;28;20437;-74
2023/11/06 10:50:25;;;;;;;1.27;0.80;;;13.60;68.50;;;;;;5051523;28;20418;-74
2023/11/06 10:52:55;;;;;;;1.30;0.80;;;14.00;67.20;;;;;;5050697;28;20439;-74
2023/11/06 10:55:25;;;;;;;2.50;1.00;;;14.20;66.40;;;;;;5052361;28;20435;-76
2023/11/06 10:57:55;;;;;;;0.80;0.60;;;14.30;65.80;;;;;;5053979;28;21044;-76
2023/11/06 11:00:21;;;;;;;5.17;0.97;;;14.50;66.00;;;;;;5053486;28;20973;-76
2023/11/06 11:02:58;;;;;;;2.73;1.40;;;14.50;65.80;;;;;;5052776;28;20443;-75
2023/11/06 11:05:26;;;;;;;2.20;0.80;;;14.40;66.40;;;;;;5052410;28;20979;-75
2023/11/06 11:07:53;;;;;;;5.40;1.20;;;14.00;66.90;;;;;;5052844;28;20411;-74
2023/11/06 11:10:22;;;;;;;3.13;1.10;;;13.80;67.50;;;;;;5052345;28;20411;-75
2023/11/06 11:12:51;;;;;;;4.60;1.00;;;13.70;67.70;;;;;;5051678;28;20783;-76
2023/11/06 11:15:32;;;;;;;3.33;1.23;;;13.50;68.00;;;;;;5051769;28;20461;-76
2023/11/06 11:18:13;;;;;;;3.47;1.10;;;13.40;68.30;;;;;;5057562;28;20499;-76
2023/11/06 11:20:56;;;;;;;0.87;0.60;;;13.40;68.80;;;;;;5071850;28;20430;-77
2023/11/06 11:23:38;;;;;;;1.60;0.80;;;13.30;68.80;;;;;;5052012;28;20431;-75
2023/11/06 11:26:05;;;;;;;2.37;0.90;;;13.20;68.60;;;;;;5033394;28;20442;-75
2023/11/06 11:28:54;;;;;;;1.67;0.80;;;13.20;68.90;;;;;;5051436;28;20427;-75
2023/11/06 11:31:39;;;;;;;2.23;0.90;;;13.20;68.90;;;;;;5053970;28;20835;-75
2023/11/06 11:34:06;;;;;;;2.00;1.10;;;13.20;69.40;;;;;;5054545;28;20439;-77
2023/11/06 11:36:40;;;;;;;2.63;0.80;;;13.20;68.60;;;;;;5055835;28;20513;-76
2023/11/06 11:39:14;;;;;;;3.20;0.97;;;13.30;68.90;;;;;;5054267;28;20473;-75
2023/11/06 11:42:00;;;;;;;2.93;1.20;;;13.40;69.20;;;;;;5059367;28;20419;-77
2023/11/06 11:44:26;;;;;;;4.50;1.00;;;13.70;68.20;;;;;;5042937;28;20534;-75
2023/11/06 11:46:54;;;;;;;1.90;1.10;;;13.70;67.90;;;;;;5056696;28;20447;-75
2023/11/06 11:49:40;;;;;;;2.60;0.80;;;13.80;67.70;;;;;;5064620;28;20415;-77
2023/11/06 11:52:12;;;;;;;1.50;0.87;;;13.80;67.70;;;;;;5064247;28;20795;-75
2023/11/06 11:54:38;;;;;;;2.70;1.10;;;13.80;68.00;;;;;;5065437;28;20450;-75
2023/11/06 11:57:09;;;;;;;2.00;0.87;;;13.90;67.70;;;;;;5064491;28;20510;-77
2023/11/06 11:59:52;;;;;;;2.03;0.90;;;13.90;67.90;;;;;;5065895;28;20467;-76
2023/11/06 12:02:27;;;;;;;2.97;1.33;;;13.90;67.90;;;;;;5063441;28;20906;-75
2023/11/06 12:04:59;;;;;;;11.23;1.20;;;13.80;68.20;;;;;;5047554;28;20484;-75
2023/11/06 12:07:28;;;;;;;3.50;1.10;;;13.70;67.50;;;;;;5066405;28;20505;-76
2023/11/06 12:09:55;;;;;;;1.90;0.93;;;13.60;67.60;;;;;;5062825;28;20438;-76
2023/11/06 12:12:22;;;;;;;3.13;1.50;;;13.70;68.20;;;;;;5064777;28;20510;-76
2023/11/06 12:15:02;;;;;;;1.83;0.90;;;13.90;67.50;;;;;;5066410;28;20450;-76
2023/11/06 12:17:35;;;;;;;4.23;1.10;;;14.00;67.50;;;;;;5064355;28;20466;-76
2023/11/06 12:20:08;;;;;;;3.17;0.90;;;13.70;67.20;;;;;;5061081;28;20850;-75
2023/11/06 12:22:47;;;;;;;1.57;0.70;;;13.70;67.60;;;;;;5060188;28;20427;-76
2023/11/06 12:25:16;;;;;;;2.30;1.27;;;13.70;67.30;;;;;;5060764;28;20465;-76
2023/11/06 12:27:42;;;;;;;4.17;1.00;;;13.70;67.70;;;;;;5062566;28;20931;-76
2023/11/06 12:30:09;;;;;;;2.10;1.00;;;13.80;67.60;;;;;;5060131;28;20502;-76
2023/11/06 12:32:36;;;;;;;1.83;0.70;;;13.80;67.20;;;;;;5060337;28;20518;-75
2023/11/06 12:35:14;;;;;;;1.93;0.80;;;13.80;67.50;;;;;;5056443;28;20443;-75
2023/11/06 12:37:58;;;;;;;1.73;0.90;;;13.80;67.30;;;;;;5055743;28;20516;-75
2023/11/06 12:40:27;;;;;;;1.60;0.80;;;13.70;67.30;;;;;;5056409;28;20928;-75
2023/11/06 12:42:57;;;;;;;3.53;0.97;;;13.60;67.50;;;;;;5054845;28;20919;-75
2023/11/06 12:45:27;;;;;;;1.47;0.70;;;13.50;67.50;;;;;;5062060;28;20426;-75
2023/11/06 12:47:53;;;;;;;0.90;0.60;;;13.50;67.70;;;;;;5062298;28;20423;-76
2023/11/06 12:50:19;;;;;;;1.70;0.83;;;13.50;67.90;;;;;;5057750;28;20411;-75
2023/11/06 12:52:45;;;;;;;1.23;0.60;;;13.50;67.90;;;;;;5044758;28;20422;-77
2023/11/06 12:55:15;;;;;;;2.07;0.77;;;13.50;68.20;;;;;;5055942;28;20451;-74